createdAt,value
2022-08-31T00:00:41.047Z,1001.22
2022-08-31T00:01:41.018Z,1001.18
2022-08-31T00:02:41.040Z,1001.18
2022-08-31T00:03:41.000Z,1001.13
2022-08-31T00:04:41.050Z,1001.14
2022-08-31T00:05:40.982Z,1001.17
2022-08-31T00:06:40.961Z,1001.17
2022-08-31T00:07:40.958Z,1001.25
2022-08-31T00:08:40.961Z,1001.15
2022-08-31T00:09:40.921Z,1001.16
2022-08-31T00:10:40.929Z,1001.17
2022-08-31T00:11:40.910Z,1001.18
2022-08-31T00:12:40.902Z,1001.19
2022-08-31T00:13:40.912Z,1001.20
2022-08-31T00:14:40.886Z,1001.23
2022-08-31T00:15:40.878Z,1001.17
2022-08-31T00:16:40.921Z,1001.23
2022-08-31T00:17:40.841Z,1001.23
2022-08-31T00:18:40.842Z,1001.20
2022-08-31T00:19:40.841Z,1001.19
2022-08-31T00:20:40.823Z,1001.20
2022-08-31T00:21:40.796Z,1001.21
2022-08-31T00:22:40.803Z,1001.13
2022-08-31T00:23:40.773Z,1001.19
2022-08-31T00:24:40.795Z,1001.21
2022-08-31T00:25:40.762Z,1001.21
2022-08-31T00:26:40.743Z,1001.19
2022-08-31T00:27:40.734Z,1001.22
2022-08-31T00:28:40.724Z,1001.22
2022-08-31T00:29:40.715Z,1001.15
2022-08-31T00:30:40.723Z,1001.19
2022-08-31T00:31:40.791Z,1001.16
2022-08-31T00:32:40.689Z,1001.18
2022-08-31T00:33:40.664Z,1001.19
2022-08-31T00:34:40.654Z,1001.14
2022-08-31T00:35:40.664Z,1001.17
2022-08-31T00:36:40.653Z,1001.16
2022-08-31T00:37:40.623Z,1001.14
2022-08-31T00:38:40.626Z,1001.14
2022-08-31T00:39:40.595Z,1001.16
2022-08-31T00:40:44.770Z,1001.14
2022-08-31T00:41:40.595Z,1001.16
2022-08-31T00:42:40.565Z,1001.22
2022-08-31T00:43:40.555Z,1001.21
2022-08-31T00:44:40.575Z,1001.28
2022-08-31T00:45:40.677Z,1001.23
2022-08-31T00:46:40.524Z,1001.22
2022-08-31T00:47:40.534Z,1001.20
2022-08-31T00:48:40.505Z,1001.20
2022-08-31T00:49:40.485Z,1001.25
2022-08-31T00:50:40.478Z,1001.25
2022-08-31T00:51:40.470Z,1001.26
2022-08-31T00:52:40.456Z,1001.26
2022-08-31T00:53:40.458Z,1001.25
2022-08-31T00:54:40.437Z,1001.26
2022-08-31T00:55:40.429Z,1001.28
2022-08-31T00:56:40.415Z,1001.24
2022-08-31T00:57:40.415Z,1001.20
2022-08-31T00:58:40.445Z,1001.19
2022-08-31T00:59:40.376Z,1001.20
2022-08-31T01:00:40.415Z,1001.25
2022-08-31T01:01:40.430Z,1001.20
2022-08-31T01:02:40.409Z,1001.24
2022-08-31T01:03:40.333Z,1001.20
2022-08-31T01:04:40.356Z,1001.23
2022-08-31T01:05:40.346Z,1001.23
2022-08-31T01:06:40.297Z,1001.26
2022-08-31T01:07:40.297Z,1001.25
2022-08-31T01:08:40.305Z,1001.24
2022-08-31T01:09:40.269Z,1001.23
2022-08-31T01:10:40.358Z,1001.22
2022-08-31T01:11:40.248Z,1001.28
2022-08-31T01:12:40.238Z,1001.28
2022-08-31T01:13:40.217Z,1001.28
2022-08-31T01:14:40.210Z,1001.24
2022-08-31T01:15:40.358Z,1001.34
2022-08-31T01:16:40.247Z,1001.29
2022-08-31T01:17:40.179Z,1001.30
2022-08-31T01:18:40.169Z,1001.26
2022-08-31T01:19:40.150Z,1001.29
2022-08-31T01:20:45.780Z,1001.27
2022-08-31T01:21:41.149Z,1001.27
2022-08-31T01:22:40.129Z,1001.28
2022-08-31T01:23:40.103Z,1001.30
2022-08-31T01:24:40.099Z,1001.25
2022-08-31T01:25:40.088Z,1001.26
2022-08-31T01:26:40.100Z,1001.24
2022-08-31T01:27:40.059Z,1001.26
2022-08-31T01:28:40.050Z,1001.18
2022-08-31T01:29:40.033Z,1001.19
2022-08-31T01:30:40.029Z,1001.22
2022-08-31T01:31:40.034Z,1001.19
2022-08-31T01:32:40.030Z,1001.21
2022-08-31T01:33:39.992Z,1001.15
2022-08-31T01:34:39.983Z,1001.14
2022-08-31T01:35:39.970Z,1001.17
2022-08-31T01:36:39.961Z,1001.15
2022-08-31T01:37:39.940Z,1001.13
2022-08-31T01:38:39.951Z,1001.16
2022-08-31T01:39:39.920Z,1001.19
2022-08-31T01:40:39.950Z,1001.18
2022-08-31T01:41:39.901Z,1001.13
2022-08-31T01:42:39.891Z,1001.08
2022-08-31T01:43:39.895Z,1001.06
2022-08-31T01:44:39.870Z,1001.06
2022-08-31T01:45:39.854Z,1001.02
2022-08-31T01:46:39.882Z,1001.06
2022-08-31T01:47:39.830Z,1001.03
2022-08-31T01:48:41.557Z,1001.04
2022-08-31T01:49:39.826Z,1001.00
2022-08-31T01:50:39.802Z,1001.02
2022-08-31T01:51:39.784Z,1000.93
2022-08-31T01:52:39.776Z,1000.98
2022-08-31T01:53:39.763Z,1001.00
2022-08-31T01:54:39.761Z,1001.03
2022-08-31T01:55:39.764Z,1000.99
2022-08-31T01:56:39.736Z,1000.99
2022-08-31T01:57:39.725Z,1001.07
2022-08-31T01:58:39.715Z,1001.10
2022-08-31T01:59:39.695Z,1001.12
2022-08-31T02:00:39.769Z,1001.10
2022-08-31T02:01:39.746Z,1001.10
2022-08-31T02:02:39.709Z,1001.08
2022-08-31T02:03:39.662Z,1001.09
2022-08-31T02:04:39.645Z,1001.10
2022-08-31T02:05:39.634Z,1001.06
2022-08-31T02:06:39.655Z,1001.05
2022-08-31T02:07:39.607Z,1001.08
2022-08-31T02:08:39.599Z,1001.04
2022-08-31T02:09:39.585Z,1001.08
2022-08-31T02:10:39.578Z,1001.08
2022-08-31T02:11:39.565Z,1000.97
2022-08-31T02:12:39.575Z,1001.09
2022-08-31T02:13:39.545Z,1001.03
2022-08-31T02:14:39.536Z,1001.02
2022-08-31T02:15:39.529Z,1001.02
2022-08-31T02:16:39.615Z,1001.04
2022-08-31T02:17:39.518Z,1001.00
2022-08-31T02:18:39.494Z,1001.04
2022-08-31T02:19:39.477Z,1001.02
2022-08-31T02:20:39.467Z,1000.99
2022-08-31T02:21:39.454Z,1001.01
2022-08-31T02:22:39.449Z,1001.02
2022-08-31T02:23:39.447Z,1001.01
2022-08-31T02:24:39.418Z,1001.02
2022-08-31T02:25:39.416Z,1000.99
2022-08-31T02:26:39.408Z,1001.04
2022-08-31T02:27:39.386Z,1001.03
2022-08-31T02:28:39.374Z,1001.06
2022-08-31T02:29:39.388Z,1001.04
2022-08-31T02:30:39.365Z,1000.98
2022-08-31T02:31:39.399Z,1001.01
2022-08-31T02:32:39.329Z,1001.00
2022-08-31T02:33:39.318Z,1000.98
2022-08-31T02:34:39.308Z,1000.98
2022-08-31T02:35:39.320Z,1001.01
2022-08-31T02:36:39.289Z,1001.02
2022-08-31T02:37:39.269Z,1001.02
2022-08-31T02:38:39.264Z,1001.05
2022-08-31T02:39:39.248Z,1001.07
2022-08-31T02:40:39.362Z,1000.96
2022-08-31T02:41:39.257Z,1001.07
2022-08-31T02:42:53.212Z,1001.09
2022-08-31T02:43:40.212Z,1001.00
2022-08-31T02:44:39.200Z,1001.08
2022-08-31T02:45:39.197Z,1001.01
2022-08-31T02:46:39.295Z,1001.05
2022-08-31T02:47:39.187Z,1001.07
2022-08-31T02:48:39.177Z,1001.09
2022-08-31T02:49:39.174Z,1001.08
2022-08-31T02:50:39.139Z,1001.06
2022-08-31T02:51:39.144Z,1001.12
2022-08-31T02:52:39.107Z,1001.06
2022-08-31T02:53:39.128Z,1001.09
2022-08-31T02:54:39.093Z,1001.02
2022-08-31T02:55:39.080Z,1001.10
2022-08-31T02:56:39.070Z,1001.08
2022-08-31T02:57:39.052Z,1001.06
2022-08-31T02:58:39.040Z,1001.11
2022-08-31T02:59:39.050Z,1001.08
2022-08-31T03:00:39.025Z,1001.09
2022-08-31T03:01:39.041Z,1001.10
2022-08-31T03:02:39.048Z,1001.11
2022-08-31T03:03:38.988Z,1001.10
2022-08-31T03:04:39.000Z,1001.15
2022-08-31T03:05:38.961Z,1001.14
2022-08-31T03:06:38.957Z,1001.19
2022-08-31T03:07:38.941Z,1001.14
2022-08-31T03:08:38.929Z,1001.06
2022-08-31T03:09:38.915Z,1001.07
2022-08-31T03:10:38.939Z,1001.05
2022-08-31T03:11:38.891Z,1001.07
2022-08-31T03:12:38.883Z,1001.07
2022-08-31T03:13:38.872Z,1001.11
2022-08-31T03:14:38.862Z,1001.09
2022-08-31T03:15:38.882Z,1001.13
2022-08-31T03:16:38.852Z,1001.09
2022-08-31T03:17:38.825Z,1001.12
2022-08-31T03:18:38.815Z,1001.09
2022-08-31T03:19:38.802Z,1001.12
2022-08-31T03:20:38.794Z,1001.13
2022-08-31T03:21:38.798Z,1001.12
2022-08-31T03:22:38.774Z,1001.09
2022-08-31T03:23:38.760Z,1001.09
2022-08-31T03:24:38.753Z,1001.07
2022-08-31T03:25:39.821Z,1001.09
2022-08-31T03:26:38.736Z,1001.05
2022-08-31T03:27:38.732Z,1001.09
2022-08-31T03:28:38.704Z,1001.06
2022-08-31T03:29:38.695Z,1001.00
2022-08-31T03:30:38.683Z,1001.06
2022-08-31T03:31:38.721Z,1001.04
2022-08-31T03:32:38.663Z,1001.03
2022-08-31T03:33:38.673Z,1001.06
2022-08-31T03:34:38.634Z,1001.02
2022-08-31T03:35:38.625Z,1001.04
2022-08-31T03:36:38.614Z,1001.11
2022-08-31T03:37:38.604Z,1001.04
2022-08-31T03:38:38.596Z,1001.04
2022-08-31T03:39:38.603Z,1001.06
2022-08-31T03:40:38.635Z,1001.10
2022-08-31T03:41:38.555Z,1001.08
2022-08-31T03:42:38.545Z,1001.09
2022-08-31T03:43:38.537Z,1001.12
2022-08-31T03:44:38.536Z,1001.17
2022-08-31T03:45:38.537Z,1001.13
2022-08-31T03:46:38.580Z,1001.11
2022-08-31T03:47:44.917Z,1001.14
2022-08-31T03:48:39.490Z,1001.09
2022-08-31T03:49:38.467Z,1001.18
2022-08-31T03:50:38.466Z,1001.15
2022-08-31T03:51:38.467Z,1001.17
2022-08-31T03:52:38.436Z,1001.18
2022-08-31T03:53:38.427Z,1001.21
2022-08-31T03:54:38.435Z,1001.23
2022-08-31T03:55:38.405Z,1001.25
2022-08-31T03:56:38.414Z,1001.29
2022-08-31T03:57:38.386Z,1001.28
2022-08-31T03:58:38.370Z,1001.35
2022-08-31T03:59:38.368Z,1001.37
2022-08-31T04:00:38.357Z,1001.42
2022-08-31T04:01:38.408Z,1001.42
2022-08-31T04:02:38.373Z,1001.47
2022-08-31T04:03:38.318Z,1001.53
2022-08-31T04:04:38.307Z,1001.50
2022-08-31T04:05:38.335Z,1001.54
2022-08-31T04:06:38.283Z,1001.58
2022-08-31T04:07:42.157Z,1001.59
2022-08-31T04:08:38.268Z,1001.62
2022-08-31T04:09:38.249Z,1001.66
2022-08-31T04:10:38.238Z,1001.70
2022-08-31T04:11:45.454Z,1001.67
2022-08-31T04:12:39.243Z,1001.76
2022-08-31T04:13:38.208Z,1001.78
2022-08-31T04:14:38.195Z,1001.78
2022-08-31T04:15:38.239Z,1001.78
2022-08-31T04:16:38.170Z,1001.80
2022-08-31T04:17:38.168Z,1001.80
2022-08-31T04:18:38.169Z,1001.78
2022-08-31T04:19:38.139Z,1001.79
2022-08-31T04:20:38.121Z,1001.83
2022-08-31T04:21:38.121Z,1001.81
2022-08-31T04:22:38.101Z,1001.75
2022-08-31T04:23:38.091Z,1001.75
2022-08-31T04:24:38.106Z,1001.76
2022-08-31T04:25:38.070Z,1001.73
2022-08-31T04:26:38.059Z,1001.72
2022-08-31T04:27:38.050Z,1001.79
2022-08-31T04:28:38.042Z,1001.73
2022-08-31T04:29:38.052Z,1001.80
2022-08-31T04:30:38.033Z,1001.77
2022-08-31T04:31:38.003Z,1001.74
2022-08-31T04:32:37.991Z,1001.77
2022-08-31T04:33:37.995Z,1001.79
2022-08-31T04:34:37.972Z,1001.78
2022-08-31T04:35:37.991Z,1001.77
2022-08-31T04:36:37.951Z,1001.79
2022-08-31T04:37:37.953Z,1001.82
2022-08-31T04:38:37.931Z,1001.77
2022-08-31T04:39:50.559Z,1001.85
2022-08-31T04:40:39.029Z,1001.81
2022-08-31T04:41:37.902Z,1001.86
2022-08-31T04:42:37.883Z,1001.81
2022-08-31T04:43:37.887Z,1001.86
2022-08-31T04:44:37.864Z,1001.86
2022-08-31T04:45:37.945Z,1001.87
2022-08-31T04:46:37.871Z,1001.85
2022-08-31T04:47:37.844Z,1001.85
2022-08-31T04:48:37.821Z,1001.85
2022-08-31T04:49:37.814Z,1001.85
2022-08-31T04:50:41.843Z,1001.87
2022-08-31T04:51:37.817Z,1001.87
2022-08-31T04:52:37.775Z,1001.83
2022-08-31T04:53:37.764Z,1001.86
2022-08-31T04:54:37.755Z,1001.78
2022-08-31T04:55:37.753Z,1001.83
2022-08-31T04:56:37.732Z,1001.86
2022-08-31T04:57:37.743Z,1001.83
2022-08-31T04:58:37.704Z,1001.90
2022-08-31T04:59:37.706Z,1001.88
2022-08-31T05:00:37.685Z,1001.82
2022-08-31T05:01:43.265Z,1001.93
2022-08-31T05:02:38.750Z,1001.85
2022-08-31T05:03:37.654Z,1001.85
2022-08-31T05:04:37.642Z,1001.86
2022-08-31T05:05:37.625Z,1001.85
2022-08-31T05:06:37.615Z,1001.85
2022-08-31T05:07:37.604Z,1001.89
2022-08-31T05:08:37.625Z,1001.88
2022-08-31T05:09:37.586Z,1001.93
2022-08-31T05:10:37.567Z,1001.91
2022-08-31T05:11:37.564Z,1001.92
2022-08-31T05:12:37.545Z,1001.89
2022-08-31T05:13:37.537Z,1001.93
2022-08-31T05:14:37.546Z,1001.92
2022-08-31T05:15:37.573Z,1001.93
2022-08-31T05:16:37.504Z,1001.94
2022-08-31T05:17:37.496Z,1001.91
2022-08-31T05:18:37.476Z,1001.91
2022-08-31T05:19:41.046Z,1001.94
2022-08-31T05:20:37.467Z,1001.96
2022-08-31T05:21:37.455Z,1001.95
2022-08-31T05:22:37.436Z,1001.96
2022-08-31T05:23:37.426Z,1001.97
2022-08-31T05:24:37.406Z,1001.99
2022-08-31T05:25:37.426Z,1002.04
2022-08-31T05:26:37.390Z,1001.97
2022-08-31T05:27:37.380Z,1001.98
2022-08-31T05:28:37.367Z,1002.00
2022-08-31T05:29:37.362Z,1001.99
2022-08-31T05:30:37.377Z,1001.97
2022-08-31T05:31:37.357Z,1002.00
2022-08-31T05:32:38.358Z,1002.03
2022-08-31T05:33:37.317Z,1002.04
2022-08-31T05:34:37.298Z,1002.03
2022-08-31T05:35:37.288Z,1002.02
2022-08-31T05:36:37.276Z,1002.07
2022-08-31T05:37:37.399Z,1002.05
2022-08-31T05:38:37.257Z,1002.04
2022-08-31T05:39:37.248Z,1002.01
2022-08-31T05:40:37.301Z,1002.07
2022-08-31T05:41:37.219Z,1002.08
2022-08-31T05:42:37.231Z,1002.10
2022-08-31T05:43:37.200Z,1002.10
2022-08-31T05:44:37.182Z,1002.08
2022-08-31T05:45:37.180Z,1002.10
2022-08-31T05:46:37.210Z,1002.15
2022-08-31T05:47:37.158Z,1002.12
2022-08-31T05:48:49.150Z,1002.17
2022-08-31T05:49:38.134Z,1002.14
2022-08-31T05:50:37.120Z,1002.15
2022-08-31T05:51:38.399Z,1002.15
2022-08-31T05:52:37.097Z,1002.12
2022-08-31T05:53:37.086Z,1002.14
2022-08-31T05:54:37.088Z,1002.09
2022-08-31T05:55:37.095Z,1002.14
2022-08-31T05:56:37.057Z,1002.13
2022-08-31T05:57:37.037Z,1002.12
2022-08-31T05:58:37.027Z,1002.09
2022-08-31T05:59:37.017Z,1002.12
2022-08-31T06:00:37.027Z,1002.17
2022-08-31T06:01:37.023Z,1002.14
2022-08-31T06:02:36.978Z,1002.11
2022-08-31T06:03:36.979Z,1002.16
2022-08-31T06:04:36.959Z,1002.12
2022-08-31T06:05:36.997Z,1002.16
2022-08-31T06:06:36.986Z,1002.09
2022-08-31T06:07:36.938Z,1002.14
2022-08-31T06:08:36.917Z,1002.12
2022-08-31T06:09:36.916Z,1002.14
2022-08-31T06:10:36.897Z,1002.18
2022-08-31T06:11:36.891Z,1002.19
2022-08-31T06:12:36.912Z,1002.14
2022-08-31T06:13:36.859Z,1002.15
2022-08-31T06:14:36.851Z,1002.16
2022-08-31T06:15:39.473Z,1002.13
2022-08-31T06:16:37.876Z,1002.15
2022-08-31T06:17:36.839Z,1002.14
2022-08-31T06:18:36.816Z,1002.14
2022-08-31T06:19:36.799Z,1002.11
2022-08-31T06:20:36.781Z,1002.10
2022-08-31T06:21:36.771Z,1002.10
2022-08-31T06:22:36.759Z,1002.12
2022-08-31T06:23:36.780Z,1002.12
2022-08-31T06:24:36.745Z,1002.18
2022-08-31T06:25:36.730Z,1002.15
2022-08-31T06:26:36.720Z,1002.15
2022-08-31T06:27:36.709Z,1002.15
2022-08-31T06:28:36.702Z,1002.19
2022-08-31T06:29:36.700Z,1002.21
2022-08-31T06:30:44.213Z,1002.19
2022-08-31T06:31:37.726Z,1002.17
2022-08-31T06:32:36.652Z,1002.14
2022-08-31T06:33:36.649Z,1002.23
2022-08-31T06:34:36.659Z,1002.20
2022-08-31T06:35:36.620Z,1002.21
2022-08-31T06:36:36.601Z,1002.17
2022-08-31T06:37:36.601Z,1002.20
2022-08-31T06:38:36.582Z,1002.20
2022-08-31T06:39:36.577Z,1002.21
2022-08-31T06:40:36.673Z,1002.18
2022-08-31T06:41:37.027Z,1002.19
2022-08-31T06:42:36.541Z,1002.19
2022-08-31T06:43:36.532Z,1002.15
2022-08-31T06:44:36.510Z,1002.22
2022-08-31T06:45:36.502Z,1002.14
2022-08-31T06:46:36.634Z,1002.16
2022-08-31T06:47:36.482Z,1002.16
2022-08-31T06:48:36.468Z,1002.13
2022-08-31T06:49:36.461Z,1002.20
2022-08-31T06:50:36.434Z,1002.17
2022-08-31T06:51:36.447Z,1002.18
2022-08-31T06:52:38.912Z,1002.26
2022-08-31T06:53:36.404Z,1002.21
2022-08-31T06:54:36.392Z,1002.17
2022-08-31T06:55:36.387Z,1002.24
2022-08-31T06:56:36.372Z,1002.23
2022-08-31T06:57:36.363Z,1002.28
2022-08-31T06:58:36.381Z,1002.24
2022-08-31T06:59:36.334Z,1002.27
2022-08-31T07:00:36.345Z,1002.24
2022-08-31T07:01:36.512Z,1002.29
2022-08-31T07:02:36.343Z,1002.28
2022-08-31T07:03:36.285Z,1002.24
2022-08-31T07:04:36.287Z,1002.28
2022-08-31T07:05:36.265Z,1002.20
2022-08-31T07:06:36.252Z,1002.24
2022-08-31T07:07:36.245Z,1002.22
2022-08-31T07:08:36.225Z,1002.25
2022-08-31T07:09:36.236Z,1002.25
2022-08-31T07:10:36.225Z,1002.27
2022-08-31T07:11:37.472Z,1002.27
2022-08-31T07:12:36.196Z,1002.27
2022-08-31T07:13:36.182Z,1002.33
2022-08-31T07:14:36.158Z,1002.28
2022-08-31T07:15:36.174Z,1002.27
2022-08-31T07:16:36.211Z,1002.34
2022-08-31T07:17:36.161Z,1002.26
2022-08-31T07:18:36.115Z,1002.29
2022-08-31T07:19:36.107Z,1002.30
2022-08-31T07:20:36.144Z,1002.28
2022-08-31T07:21:36.187Z,1002.25
2022-08-31T07:22:36.071Z,1002.29
2022-08-31T07:23:36.080Z,1002.30
2022-08-31T07:24:36.045Z,1002.27
2022-08-31T07:25:36.040Z,1002.32
2022-08-31T07:26:36.497Z,1002.32
2022-08-31T07:27:36.048Z,1002.30
2022-08-31T07:28:35.997Z,1002.36
2022-08-31T07:29:35.989Z,1002.36
2022-08-31T07:30:36.036Z,1002.32
2022-08-31T07:31:35.960Z,1002.36
2022-08-31T07:32:35.969Z,1002.28
2022-08-31T07:33:35.940Z,1002.32
2022-08-31T07:34:36.042Z,1002.39
2022-08-31T07:35:35.919Z,1002.36
2022-08-31T07:36:35.899Z,1002.37
2022-08-31T07:37:35.898Z,1002.33
2022-08-31T07:38:35.899Z,1002.35
2022-08-31T07:39:35.870Z,1002.38
2022-08-31T07:40:35.919Z,1002.44
2022-08-31T07:41:35.844Z,1002.44
2022-08-31T07:42:35.829Z,1002.41
2022-08-31T07:43:35.820Z,1002.41
2022-08-31T07:44:35.831Z,1002.41
2022-08-31T07:45:37.762Z,1002.47
2022-08-31T07:46:35.812Z,1002.45
2022-08-31T07:47:35.828Z,1002.49
2022-08-31T07:48:35.771Z,1002.48
2022-08-31T07:49:35.774Z,1002.48
2022-08-31T07:50:35.739Z,1002.51
2022-08-31T07:51:35.731Z,1002.51
2022-08-31T07:52:35.721Z,1002.60
2022-08-31T07:53:35.702Z,1002.60
2022-08-31T07:54:35.691Z,1002.55
2022-08-31T07:55:35.702Z,1002.61
2022-08-31T07:56:35.662Z,1002.65
2022-08-31T07:57:35.652Z,1002.60
2022-08-31T07:58:35.656Z,1002.60
2022-08-31T07:59:35.631Z,1002.57
2022-08-31T08:00:35.620Z,1002.58
2022-08-31T08:01:36.021Z,1002.69
2022-08-31T08:02:35.645Z,1002.61
2022-08-31T08:03:35.586Z,1002.65
2022-08-31T08:04:35.601Z,1002.63
2022-08-31T08:05:35.573Z,1002.62
2022-08-31T08:06:35.545Z,1002.67
2022-08-31T08:07:35.577Z,1002.65
2022-08-31T08:08:35.525Z,1002.74
2022-08-31T08:09:35.514Z,1002.71
2022-08-31T08:10:35.513Z,1002.70
2022-08-31T08:11:35.494Z,1002.72
2022-08-31T08:12:35.489Z,1002.71
2022-08-31T08:13:35.514Z,1002.75
2022-08-31T08:14:35.470Z,1002.72
2022-08-31T08:15:35.977Z,1002.72
2022-08-31T08:16:35.516Z,1002.79
2022-08-31T08:17:35.423Z,1002.79
2022-08-31T08:18:35.417Z,1002.79
2022-08-31T08:19:35.424Z,1002.78
2022-08-31T08:20:37.887Z,1002.81
2022-08-31T08:21:35.375Z,1002.81
2022-08-31T08:22:50.994Z,1002.84
2022-08-31T08:23:36.357Z,1002.84
2022-08-31T08:24:35.346Z,1002.85
2022-08-31T08:25:35.344Z,1002.81
2022-08-31T08:26:35.386Z,1002.78
2022-08-31T08:27:35.304Z,1002.87
2022-08-31T08:28:39.610Z,1002.90
2022-08-31T08:29:36.287Z,1002.82
2022-08-31T08:30:35.299Z,1002.87
2022-08-31T08:31:35.308Z,1002.88
2022-08-31T08:32:35.256Z,1002.84
2022-08-31T08:33:35.239Z,1002.89
2022-08-31T08:34:35.229Z,1002.87
2022-08-31T08:35:35.216Z,1002.85
2022-08-31T08:36:35.232Z,1002.83
2022-08-31T08:37:54.761Z,1002.90
2022-08-31T08:38:36.188Z,1002.88
2022-08-31T08:39:35.170Z,1002.89
2022-08-31T08:40:35.212Z,1002.83
2022-08-31T08:41:35.149Z,1002.91
2022-08-31T08:42:35.171Z,1002.92
2022-08-31T08:43:35.124Z,1002.88
2022-08-31T08:44:35.129Z,1002.87
2022-08-31T08:45:35.157Z,1002.87
2022-08-31T08:46:35.695Z,1002.80
2022-08-31T08:47:37.498Z,1002.83
2022-08-31T08:48:35.069Z,1002.82
2022-08-31T08:49:35.058Z,1002.87
2022-08-31T08:50:35.048Z,1002.89
2022-08-31T08:51:35.040Z,1002.90
2022-08-31T08:52:35.779Z,1002.87
2022-08-31T08:53:35.010Z,1002.88
2022-08-31T08:54:35.008Z,1002.91
2022-08-31T08:55:34.990Z,1002.90
2022-08-31T08:56:34.980Z,1002.88
2022-08-31T08:57:34.972Z,1002.88
2022-08-31T08:58:34.983Z,1002.90
2022-08-31T08:59:34.949Z,1002.88
2022-08-31T09:00:34.960Z,1002.93
2022-08-31T09:01:34.986Z,1002.92
2022-08-31T09:02:35.023Z,1002.88
2022-08-31T09:03:34.902Z,1002.87
2022-08-31T09:04:34.915Z,1002.90
2022-08-31T09:05:34.882Z,1002.87
2022-08-31T09:06:45.344Z,1002.92
2022-08-31T09:07:35.861Z,1002.88
2022-08-31T09:08:34.844Z,1002.92
2022-08-31T09:09:34.856Z,1002.92
2022-08-31T09:10:34.822Z,1002.92
2022-08-31T09:11:34.805Z,1002.90
2022-08-31T09:12:34.804Z,1002.91
2022-08-31T09:13:34.783Z,1002.96
2022-08-31T09:14:34.781Z,1002.95
2022-08-31T09:15:34.812Z,1002.96
2022-08-31T09:16:34.789Z,1002.92
2022-08-31T09:17:34.754Z,1002.89
2022-08-31T09:18:34.733Z,1002.92
2022-08-31T09:19:34.714Z,1002.97
2022-08-31T09:20:34.714Z,1002.93
2022-08-31T09:21:34.715Z,1002.91
2022-08-31T09:22:34.685Z,1003.02
2022-08-31T09:23:34.679Z,1002.88
2022-08-31T09:24:34.665Z,1002.93
2022-08-31T09:25:34.659Z,1002.93
2022-08-31T09:26:34.645Z,1002.94
2022-08-31T09:27:34.654Z,1002.95
2022-08-31T09:28:34.626Z,1002.94
2022-08-31T09:29:34.606Z,1002.96
2022-08-31T09:30:34.597Z,1002.96
2022-08-31T09:31:34.842Z,1003.00
2022-08-31T09:32:34.576Z,1002.96
2022-08-31T09:33:34.577Z,1002.93
2022-08-31T09:34:34.560Z,1002.94
2022-08-31T09:35:34.537Z,1002.95
2022-08-31T09:36:34.535Z,1002.96
2022-08-31T09:37:34.527Z,1002.99
2022-08-31T09:38:34.540Z,1002.94
2022-08-31T09:39:37.156Z,1003.00
2022-08-31T09:40:34.569Z,1002.96
2022-08-31T09:41:34.477Z,1002.97
2022-08-31T09:42:34.458Z,1002.98
2022-08-31T09:43:34.447Z,1002.92
2022-08-31T09:44:34.458Z,1002.92
2022-08-31T09:45:36.134Z,1002.93
2022-08-31T09:46:34.424Z,1002.96
2022-08-31T09:47:34.400Z,1002.98
2022-08-31T09:48:34.399Z,1002.99
2022-08-31T09:49:34.388Z,1002.99
2022-08-31T09:50:34.771Z,1002.99
2022-08-31T09:51:34.359Z,1002.91
2022-08-31T09:52:34.360Z,1002.99
2022-08-31T09:53:34.340Z,1002.95
2022-08-31T09:54:34.330Z,1002.99
2022-08-31T09:55:34.349Z,1003.01
2022-08-31T09:56:34.309Z,1003.00
2022-08-31T09:57:34.291Z,1003.01
2022-08-31T09:58:34.285Z,1002.99
2022-08-31T09:59:34.270Z,1002.94
2022-08-31T10:00:34.262Z,1003.01
2022-08-31T10:01:34.355Z,1002.99
2022-08-31T10:02:34.241Z,1003.00
2022-08-31T10:03:34.224Z,1002.97
2022-08-31T10:04:34.222Z,1003.00
2022-08-31T10:05:34.268Z,1002.97
2022-08-31T10:06:34.193Z,1002.95
2022-08-31T10:07:34.202Z,1002.97
2022-08-31T10:08:34.172Z,1002.96
2022-08-31T10:09:34.154Z,1002.94
2022-08-31T10:10:34.154Z,1002.94
2022-08-31T10:11:34.133Z,1002.92
2022-08-31T10:12:34.125Z,1002.96
2022-08-31T10:13:34.126Z,1002.93
2022-08-31T10:14:34.103Z,1002.97
2022-08-31T10:15:34.132Z,1002.96
2022-08-31T10:16:34.080Z,1002.97
2022-08-31T10:17:34.071Z,1002.94
2022-08-31T10:18:34.082Z,1002.95
2022-08-31T10:19:34.052Z,1002.96
2022-08-31T10:20:34.038Z,1002.93
2022-08-31T10:21:34.015Z,1002.95
2022-08-31T10:22:34.014Z,1002.95
2022-08-31T10:23:33.995Z,1002.92
2022-08-31T10:24:34.705Z,1002.94
2022-08-31T10:25:33.974Z,1002.91
2022-08-31T10:26:33.968Z,1002.93
2022-08-31T10:27:33.945Z,1002.86
2022-08-31T10:28:33.945Z,1002.90
2022-08-31T10:29:33.935Z,1002.96
2022-08-31T10:30:33.946Z,1002.99
2022-08-31T10:31:33.953Z,1002.87
2022-08-31T10:32:33.915Z,1002.92
2022-08-31T10:33:33.877Z,1002.89
2022-08-31T10:34:33.876Z,1002.88
2022-08-31T10:35:33.899Z,1002.91
2022-08-31T10:36:33.859Z,1002.89
2022-08-31T10:37:33.840Z,1002.84
2022-08-31T10:38:33.829Z,1002.87
2022-08-31T10:39:33.817Z,1002.86
2022-08-31T10:40:33.854Z,1002.83
2022-08-31T10:41:33.818Z,1002.86
2022-08-31T10:42:33.788Z,1002.84
2022-08-31T10:43:33.768Z,1002.88
2022-08-31T10:44:33.759Z,1002.86
2022-08-31T10:45:33.748Z,1002.93
2022-08-31T10:46:33.811Z,1002.88
2022-08-31T10:47:34.349Z,1002.84
2022-08-31T10:48:33.720Z,1002.77
2022-08-31T10:49:33.710Z,1002.78
2022-08-31T10:50:33.700Z,1002.80
2022-08-31T10:51:33.680Z,1002.79
2022-08-31T10:52:33.670Z,1002.85
2022-08-31T10:53:35.840Z,1002.85
2022-08-31T10:54:34.650Z,1002.79
2022-08-31T10:55:33.632Z,1002.77
2022-08-31T10:56:33.621Z,1002.81
2022-08-31T10:57:33.611Z,1002.77
2022-08-31T10:58:33.650Z,1002.80
2022-08-31T10:59:33.593Z,1002.75
2022-08-31T11:00:33.582Z,1002.76
2022-08-31T11:01:33.604Z,1002.73
2022-08-31T11:02:33.562Z,1002.76
2022-08-31T11:03:33.593Z,1002.74
2022-08-31T11:04:33.640Z,1002.76
2022-08-31T11:05:33.522Z,1002.68
2022-08-31T11:06:33.516Z,1002.70
2022-08-31T11:07:33.509Z,1002.75
2022-08-31T11:08:33.492Z,1002.77
2022-08-31T11:09:33.504Z,1002.79
2022-08-31T11:10:33.484Z,1002.73
2022-08-31T11:11:33.453Z,1002.70
2022-08-31T11:12:33.444Z,1002.79
2022-08-31T11:13:33.425Z,1002.77
2022-08-31T11:14:33.424Z,1002.74
2022-08-31T11:15:33.464Z,1002.83
2022-08-31T11:16:33.405Z,1002.73
2022-08-31T11:17:33.384Z,1002.75
2022-08-31T11:18:33.376Z,1002.79
2022-08-31T11:19:33.357Z,1002.81
2022-08-31T11:20:33.346Z,1002.81
2022-08-31T11:21:33.415Z,1002.74
2022-08-31T11:22:33.335Z,1002.77
2022-08-31T11:23:33.326Z,1002.75
2022-08-31T11:24:37.168Z,1002.76
2022-08-31T11:25:33.298Z,1002.75
2022-08-31T11:26:33.278Z,1002.73
2022-08-31T11:27:33.297Z,1002.75
2022-08-31T11:28:33.259Z,1002.74
2022-08-31T11:29:34.396Z,1002.82
2022-08-31T11:30:33.237Z,1002.73
2022-08-31T11:31:33.261Z,1002.77
2022-08-31T11:32:33.218Z,1002.74
2022-08-31T11:33:33.219Z,1002.75
2022-08-31T11:34:33.190Z,1002.76
2022-08-31T11:35:33.177Z,1002.79
2022-08-31T11:36:33.199Z,1002.77
2022-08-31T11:37:33.150Z,1002.71
2022-08-31T11:38:33.149Z,1002.79
2022-08-31T11:39:33.152Z,1002.67
2022-08-31T11:40:33.189Z,1002.73
2022-08-31T11:41:33.110Z,1002.72
2022-08-31T11:42:33.180Z,1002.78
2022-08-31T11:43:33.088Z,1002.75
2022-08-31T11:44:33.249Z,1002.74
2022-08-31T11:45:33.096Z,1002.77
2022-08-31T11:46:33.149Z,1002.72
2022-08-31T11:47:33.040Z,1002.82
2022-08-31T11:48:40.079Z,1002.74
2022-08-31T11:49:33.021Z,1002.71
2022-08-31T11:50:33.010Z,1002.71
2022-08-31T11:51:37.278Z,1002.62
2022-08-31T11:52:33.988Z,1002.62
2022-08-31T11:53:32.971Z,1002.68
2022-08-31T11:54:32.961Z,1002.61
2022-08-31T11:55:32.953Z,1002.63
2022-08-31T11:56:32.950Z,1002.67
2022-08-31T11:57:37.048Z,1002.65
2022-08-31T11:58:32.920Z,1002.63
2022-08-31T11:59:34.002Z,1002.65
2022-08-31T12:00:32.893Z,1002.62
2022-08-31T12:01:32.882Z,1002.57
2022-08-31T12:02:32.936Z,1002.56
2022-08-31T12:03:32.882Z,1002.57
2022-08-31T12:04:32.853Z,1002.56
2022-08-31T12:05:32.858Z,1002.59